Westport, Oklahoma
Current Conditions -  °F | °C
As of 9:15 AM on Wednesday 22 Oct 2014 (Local Time) from KOWP Reporting Station
Haze Haze  
Wind Chill: 65°   Ceiling: Unl
Heat Index: 65°   Visibility: 4mi
Dew Point: 63°   Wind: 7mph
Humidity: 92%   Direction: 140°SE
Pressure: 30.17"   Gusts: NA
Location:  36.248°N, 96.4789°W
Report Text: KOWP 221415Z AUTO 14006KT 4SM BR CLR 18/17 A3017 RMK AO2 T01840171
Loading
Personal Weather Stations






























Interactive Weather Map
Tropical Storm Tracking
New forecast layout! Learn more

10-Day Weather Forecast

Advertisements
Track Severe Weather on mobile